createdAt,value
2023-03-29T00:02:48.810Z,48.02
2023-03-29T00:05:57.829Z,48.19
2023-03-29T00:09:02.047Z,47.73
2023-03-29T00:12:06.328Z,48.00
2023-03-29T00:15:10.882Z,47.73
2023-03-29T00:18:14.614Z,47.53
2023-03-29T00:21:19.922Z,47.62
2023-03-29T00:24:24.104Z,48.00
2023-03-29T00:27:27.726Z,48.40
2023-03-29T00:30:31.394Z,48.43
2023-03-29T00:33:35.445Z,48.05
2023-03-29T00:36:41.241Z,47.97
2023-03-29T00:39:45.548Z,47.64
2023-03-29T00:42:49.365Z,47.60
2023-03-29T00:45:53.814Z,47.60
2023-03-29T00:49:04.082Z,47.90
2023-03-29T00:52:09.758Z,48.21
2023-03-29T00:55:19.312Z,48.04
2023-03-29T00:58:27.066Z,48.09
2023-03-29T01:01:35.424Z,47.54
2023-03-29T01:04:42.915Z,47.93
2023-03-29T01:07:55.183Z,48.23
2023-03-29T01:11:05.017Z,48.17
2023-03-29T01:14:15.469Z,47.72
2023-03-29T01:17:22.078Z,47.68
2023-03-29T01:20:35.121Z,47.26
2023-03-29T01:23:59.427Z,47.25
2023-03-29T01:27:12.773Z,47.45
2023-03-29T01:30:22.764Z,47.76
2023-03-29T01:33:32.932Z,48.22
2023-03-29T01:36:44.740Z,47.65
2023-03-29T01:39:48.419Z,47.66
2023-03-29T01:43:00.877Z,48.16
2023-03-29T01:46:12.098Z,47.83
2023-03-29T01:49:23.881Z,48.44
2023-03-29T01:52:33.666Z,47.88
2023-03-29T01:55:41.303Z,47.70
2023-03-29T01:58:47.829Z,47.25
2023-03-29T02:01:56.880Z,46.77
2023-03-29T02:05:04.401Z,47.17
2023-03-29T02:08:11.103Z,46.88
2023-03-29T02:11:15.379Z,47.30
2023-03-29T02:14:19.621Z,47.37
2023-03-29T02:17:25.988Z,48.19
2023-03-29T02:20:32.949Z,48.08
2023-03-29T02:23:41.713Z,48.19
2023-03-29T02:26:45.664Z,48.13
2023-03-29T02:29:49.593Z,47.35
2023-03-29T02:33:00.728Z,48.03
2023-03-29T02:36:10.677Z,47.75
2023-03-29T02:39:16.726Z,47.48
2023-03-29T02:42:21.335Z,46.67
2023-03-29T02:45:27.239Z,47.12
2023-03-29T02:48:35.369Z,46.69
2023-03-29T02:51:40.585Z,46.74
2023-03-29T02:58:08.970Z,46.31
2023-03-29T03:01:15.181Z,45.95
2023-03-29T03:04:21.226Z,45.60
2023-03-29T03:07:26.333Z,45.51
2023-03-29T03:10:30.335Z,45.60
2023-03-29T03:13:34.388Z,46.37
2023-03-29T03:16:38.855Z,46.08
2023-03-29T03:23:05.184Z,46.39
2023-03-29T03:26:10.997Z,46.24
2023-03-29T03:29:16.939Z,46.98
2023-03-29T03:32:43.756Z,47.15
2023-03-29T03:36:03.064Z,48.05
2023-03-29T03:39:07.987Z,46.92
2023-03-29T03:42:11.614Z,46.92
2023-03-29T03:45:18.664Z,46.60
2023-03-29T03:48:33.602Z,46.16
2023-03-29T03:52:08.005Z,46.33
2023-03-29T03:55:12.245Z,46.68
2023-03-29T03:58:20.480Z,46.07
2023-03-29T04:01:24.236Z,46.53
2023-03-29T04:04:38.221Z,46.66
2023-03-29T04:07:52.924Z,46.88
2023-03-29T04:11:34.654Z,46.90
2023-03-29T04:14:38.847Z,47.45
2023-03-29T04:17:46.261Z,47.53
2023-03-29T04:21:10.381Z,47.31
2023-03-29T04:24:16.536Z,47.93
2023-03-29T04:27:31.365Z,47.59
2023-03-29T04:30:38.622Z,47.71
2023-03-29T04:33:51.846Z,47.33
2023-03-29T04:36:56.724Z,47.89
2023-03-29T04:40:04.851Z,47.51
2023-03-29T04:43:22.821Z,47.48
2023-03-29T04:46:35.966Z,47.58
2023-03-29T04:49:48.659Z,47.51
2023-03-29T04:53:01.329Z,47.34
2023-03-29T04:56:08.591Z,47.36
2023-03-29T04:59:35.857Z,46.92
2023-03-29T05:02:49.090Z,47.04
2023-03-29T05:05:53.324Z,46.59
2023-03-29T05:08:58.032Z,46.67
2023-03-29T05:12:19.728Z,46.50
2023-03-29T05:15:30.556Z,46.88
2023-03-29T05:18:34.993Z,47.08
2023-03-29T05:21:41.706Z,46.93
2023-03-29T05:24:49.973Z,47.07
2023-03-29T05:27:56.804Z,47.07
2023-03-29T05:31:02.539Z,46.63
2023-03-29T05:34:07.254Z,46.32
2023-03-29T05:37:19.129Z,46.31
2023-03-29T05:40:31.774Z,45.80
2023-03-29T05:44:03.301Z,44.38
2023-03-29T05:47:08.102Z,44.13
2023-03-29T05:50:12.629Z,43.46
2023-03-29T05:53:16.924Z,43.65
2023-03-29T05:56:21.240Z,42.69
2023-03-29T05:59:28.762Z,42.39
2023-03-29T06:02:33.858Z,41.73
2023-03-29T06:05:38.028Z,41.19
2023-03-29T06:08:42.414Z,40.62
2023-03-29T06:12:02.104Z,40.64
2023-03-29T06:15:16.739Z,39.53
2023-03-29T06:18:24.883Z,39.19
2023-03-29T06:24:54.169Z,38.22
2023-03-29T06:28:04.805Z,37.90
2023-03-29T06:31:13.456Z,37.03
2023-03-29T06:34:18.076Z,37.05
2023-03-29T06:37:34.096Z,37.04
2023-03-29T06:40:53.266Z,35.41
2023-03-29T06:44:00.565Z,35.41
2023-03-29T06:47:13.187Z,35.61
2023-03-29T06:50:18.086Z,35.52
2023-03-29T06:53:40.069Z,35.36
2023-03-29T06:56:44.029Z,35.13
2023-03-29T06:59:51.693Z,34.21
2023-03-29T07:03:06.743Z,34.17
2023-03-29T07:06:12.486Z,34.57
2023-03-29T07:09:19.741Z,32.98
2023-03-29T07:12:58.564Z,32.38
2023-03-29T07:16:02.610Z,32.16
2023-03-29T07:19:30.439Z,31.92
2023-03-29T07:22:53.264Z,31.13
2023-03-29T07:25:57.525Z,29.44
2023-03-29T07:29:03.017Z,29.30
2023-03-29T07:32:07.591Z,28.98
2023-03-29T07:35:21.884Z,28.96
2023-03-29T07:38:26.562Z,28.56
2023-03-29T07:41:41.002Z,27.81
2023-03-29T07:44:49.981Z,26.93
2023-03-29T07:47:57.504Z,27.51
2023-03-29T07:51:05.782Z,27.60
2023-03-29T07:54:19.241Z,26.68
2023-03-29T07:57:50.562Z,27.20
2023-03-29T08:00:55.164Z,27.61
2023-03-29T08:04:19.207Z,27.66
2023-03-29T08:07:44.419Z,27.21
2023-03-29T08:11:14.580Z,26.95
2023-03-29T08:14:30.631Z,27.94
2023-03-29T08:17:50.476Z,27.50
2023-03-29T08:20:54.563Z,27.34
2023-03-29T08:24:00.153Z,27.15
2023-03-29T08:27:16.665Z,26.90
2023-03-29T08:30:20.944Z,27.73
2023-03-29T08:33:24.955Z,27.52
2023-03-29T08:36:49.091Z,26.64
2023-03-29T08:40:09.049Z,26.11
2023-03-29T08:43:54.507Z,26.46
2023-03-29T08:47:20.545Z,26.62
2023-03-29T08:50:32.366Z,26.50
2023-03-29T08:53:44.525Z,26.25
2023-03-29T08:57:13.710Z,26.56
2023-03-29T09:00:23.298Z,26.54
2023-03-29T09:03:31.852Z,26.35
2023-03-29T09:06:42.331Z,26.30
2023-03-29T09:10:16.242Z,26.60
2023-03-29T09:13:44.604Z,26.52
2023-03-29T09:16:57.465Z,26.55
2023-03-29T09:20:10.715Z,26.74
2023-03-29T09:23:53.176Z,26.39
2023-03-29T09:27:28.024Z,25.29
2023-03-29T09:30:53.163Z,25.22
2023-03-29T09:34:00.465Z,25.35
2023-03-29T09:37:22.447Z,24.72
2023-03-29T09:40:34.562Z,25.47
2023-03-29T09:43:46.592Z,24.28
2023-03-29T09:47:00.805Z,23.25
2023-03-29T09:50:27.326Z,23.22
2023-03-29T09:53:34.085Z,23.64
2023-03-29T09:56:54.026Z,24.30
2023-03-29T10:00:02.139Z,24.30
2023-03-29T10:03:22.695Z,24.02
2023-03-29T10:06:49.884Z,23.63
2023-03-29T10:09:57.424Z,23.76
2023-03-29T10:13:05.601Z,23.85
2023-03-29T10:16:18.576Z,23.77
2023-03-29T10:19:25.683Z,24.28
2023-03-29T10:22:34.943Z,23.51
2023-03-29T10:25:42.759Z,24.20
2023-03-29T10:28:47.108Z,23.95
2023-03-29T10:31:51.807Z,24.61
2023-03-29T10:35:01.802Z,24.32
2023-03-29T10:38:10.790Z,24.45
2023-03-29T10:41:16.169Z,24.64
2023-03-29T10:44:33.252Z,23.96
2023-03-29T10:47:37.377Z,23.36
2023-03-29T10:50:43.195Z,21.41
2023-03-29T10:53:47.449Z,22.03
2023-03-29T10:56:55.361Z,22.28
2023-03-29T11:00:07.286Z,23.00
2023-03-29T11:03:31.145Z,22.96
2023-03-29T11:06:43.032Z,22.39
2023-03-29T11:09:55.862Z,21.13
2023-03-29T11:13:08.783Z,20.02
2023-03-29T11:16:26.039Z,20.84
2023-03-29T11:19:52.284Z,21.56
2023-03-29T11:23:07.068Z,21.05
2023-03-29T11:26:18.241Z,21.87
2023-03-29T11:29:27.822Z,21.92
2023-03-29T11:32:40.559Z,22.36
2023-03-29T11:35:54.134Z,21.11
2023-03-29T11:39:09.894Z,20.73
2023-03-29T11:42:18.610Z,20.44
2023-03-29T11:45:30.150Z,20.52
2023-03-29T11:48:39.002Z,20.52
2023-03-29T11:51:46.543Z,20.44
2023-03-29T11:54:56.323Z,20.61
2023-03-29T11:58:04.096Z,20.75
2023-03-29T12:01:13.185Z,20.56
2023-03-29T12:04:23.198Z,20.60
2023-03-29T12:07:33.766Z,20.33
2023-03-29T12:10:44.299Z,20.19
2023-03-29T12:13:54.040Z,20.84
2023-03-29T12:17:02.539Z,21.00
2023-03-29T12:20:14.801Z,21.11
2023-03-29T12:23:21.763Z,20.27
2023-03-29T12:26:45.939Z,20.20
2023-03-29T12:30:09.949Z,20.78
2023-03-29T12:33:40.745Z,20.69
2023-03-29T12:37:26.428Z,20.65
2023-03-29T12:40:55.748Z,20.74
2023-03-29T12:44:37.047Z,20.51
2023-03-29T12:47:53.592Z,20.59
2023-03-29T12:51:02.484Z,20.69
2023-03-29T12:54:11.911Z,20.68
2023-03-29T12:57:27.834Z,19.93
2023-03-29T13:00:45.383Z,20.11
2023-03-29T13:03:52.042Z,20.16
2023-03-29T13:07:03.564Z,20.46
2023-03-29T13:10:30.095Z,20.54
2023-03-29T13:13:37.545Z,20.60
2023-03-29T13:16:44.672Z,20.16
2023-03-29T13:19:54.724Z,20.13
2023-03-29T13:23:14.155Z,20.23
2023-03-29T13:26:36.865Z,20.18
2023-03-29T13:29:58.402Z,20.25
2023-03-29T13:33:33.844Z,20.26
2023-03-29T13:36:50.145Z,19.25
2023-03-29T13:39:55.686Z,17.78
2023-03-29T13:43:01.594Z,18.12
2023-03-29T13:46:25.146Z,18.07
2023-03-29T13:49:34.272Z,19.06
2023-03-29T13:52:42.904Z,17.09
2023-03-29T13:55:51.377Z,17.44
2023-03-29T13:58:59.110Z,17.74
2023-03-29T14:02:06.923Z,17.86
2023-03-29T14:05:17.222Z,17.84
2023-03-29T14:08:26.710Z,17.82
2023-03-29T14:11:32.365Z,17.16
2023-03-29T14:14:42.634Z,17.04
2023-03-29T14:18:00.359Z,17.07
2023-03-29T14:21:07.336Z,16.94
2023-03-29T14:24:14.028Z,16.76
2023-03-29T14:27:19.428Z,17.25
2023-03-29T14:30:29.588Z,17.71
2023-03-29T14:33:37.607Z,17.77
2023-03-29T14:36:44.178Z,18.35
2023-03-29T14:39:48.246Z,18.19
2023-03-29T14:42:52.686Z,17.58
2023-03-29T14:45:57.065Z,18.30
2023-03-29T14:49:02.422Z,19.06
2023-03-29T14:52:08.325Z,18.91
2023-03-29T14:55:14.444Z,16.82
2023-03-29T14:58:23.604Z,16.53
2023-03-29T15:01:28.234Z,16.28
2023-03-29T15:04:36.041Z,16.30
2023-03-29T15:07:45.282Z,16.52
2023-03-29T15:10:49.444Z,16.81
2023-03-29T15:14:02.495Z,16.72
2023-03-29T15:17:18.344Z,16.66
2023-03-29T15:20:26.302Z,16.55
2023-03-29T15:23:39.665Z,16.98
2023-03-29T15:26:43.635Z,17.02
2023-03-29T15:29:48.743Z,16.80
2023-03-29T15:32:55.044Z,17.00
2023-03-29T15:35:59.084Z,17.16
2023-03-29T15:39:04.646Z,16.98
2023-03-29T15:42:10.143Z,17.54
2023-03-29T15:45:18.488Z,17.24
2023-03-29T15:48:24.797Z,17.56
2023-03-29T15:51:28.729Z,17.66
2023-03-29T15:54:35.206Z,17.63
2023-03-29T15:57:39.745Z,18.10
2023-03-29T16:00:46.466Z,18.72
2023-03-29T16:03:50.485Z,19.30
2023-03-29T16:06:56.482Z,19.13
2023-03-29T16:10:02.017Z,18.82
2023-03-29T16:13:06.046Z,19.08
2023-03-29T16:16:12.257Z,19.16
2023-03-29T16:19:16.284Z,19.15
2023-03-29T16:22:20.124Z,19.06
2023-03-29T16:25:25.857Z,19.43
2023-03-29T16:28:30.042Z,19.60
2023-03-29T16:31:34.213Z,19.49
2023-03-29T16:34:38.488Z,19.66
2023-03-29T16:37:42.342Z,19.84
2023-03-29T16:40:47.859Z,19.79
2023-03-29T16:43:52.006Z,19.84
2023-03-29T16:46:58.308Z,20.21
2023-03-29T16:50:02.191Z,20.09
2023-03-29T16:53:06.322Z,20.65
2023-03-29T16:56:12.321Z,20.36
2023-03-29T16:59:16.820Z,20.63
2023-03-29T17:02:20.779Z,20.48
2023-03-29T17:05:25.606Z,21.04
2023-03-29T17:08:29.604Z,21.25
2023-03-29T17:11:35.265Z,21.48
2023-03-29T17:14:39.659Z,21.06
2023-03-29T17:17:43.966Z,20.99
2023-03-29T17:20:48.150Z,21.20
2023-03-29T17:23:52.120Z,20.91
2023-03-29T17:26:58.119Z,21.15
2023-03-29T17:30:02.039Z,21.28
2023-03-29T17:33:08.359Z,21.11
2023-03-29T17:36:13.117Z,21.15
2023-03-29T17:39:18.932Z,21.41
2023-03-29T17:42:24.301Z,21.24
2023-03-29T17:45:28.280Z,21.43
2023-03-29T17:48:33.171Z,21.66
2023-03-29T17:51:37.040Z,21.71
2023-03-29T17:54:41.105Z,21.56
2023-03-29T17:57:46.363Z,21.68
2023-03-29T18:00:50.293Z,22.22
2023-03-29T18:03:54.214Z,22.77
2023-03-29T18:06:58.140Z,23.17
2023-03-29T18:10:02.068Z,23.80
2023-03-29T18:13:07.383Z,24.44
2023-03-29T18:16:12.308Z,25.04
2023-03-29T18:19:16.230Z,25.79
2023-03-29T18:22:21.114Z,26.12
2023-03-29T18:25:25.466Z,26.58
2023-03-29T18:28:31.190Z,26.51
2023-03-29T18:31:35.524Z,26.77
2023-03-29T18:34:40.124Z,27.01
2023-03-29T18:37:44.064Z,27.24
2023-03-29T18:40:48.146Z,27.79
2023-03-29T18:43:57.509Z,28.06
2023-03-29T18:47:01.354Z,28.22
2023-03-29T18:50:05.872Z,28.65
2023-03-29T18:53:09.641Z,28.90
2023-03-29T18:56:13.632Z,29.07
2023-03-29T18:59:19.050Z,29.44
2023-03-29T19:02:23.040Z,29.71
2023-03-29T19:05:26.954Z,30.21
2023-03-29T19:08:32.688Z,30.00
2023-03-29T19:11:37.171Z,30.09
2023-03-29T19:14:42.590Z,29.87
2023-03-29T19:17:46.556Z,29.93
2023-03-29T19:20:51.257Z,29.87
2023-03-29T19:23:55.389Z,30.07
2023-03-29T19:26:59.354Z,30.47
2023-03-29T19:30:05.474Z,30.38
2023-03-29T19:33:09.490Z,30.67
2023-03-29T19:36:13.670Z,30.74
2023-03-29T19:39:17.788Z,30.74
2023-03-29T19:42:21.672Z,31.03
2023-03-29T19:45:28.189Z,30.90
2023-03-29T19:48:32.202Z,31.10
2023-03-29T19:51:36.341Z,31.55
2023-03-29T19:54:40.581Z,31.47
2023-03-29T19:57:44.459Z,32.33
2023-03-29T20:00:51.011Z,32.10
2023-03-29T20:03:55.655Z,32.77
2023-03-29T20:06:59.801Z,33.17
2023-03-29T20:10:04.084Z,32.68
2023-03-29T20:13:07.999Z,33.09
2023-03-29T20:16:15.134Z,32.81
2023-03-29T20:19:19.500Z,32.74
2023-03-29T20:22:26.491Z,32.49
2023-03-29T20:25:30.540Z,32.47
2023-03-29T20:28:34.561Z,32.08
2023-03-29T20:31:40.063Z,31.89
2023-03-29T20:34:44.081Z,31.64
2023-03-29T20:37:47.926Z,31.43
2023-03-29T20:40:51.801Z,30.88
2023-03-29T20:44:00.158Z,31.06
2023-03-29T20:47:08.436Z,30.67
2023-03-29T20:50:12.802Z,30.76
2023-03-29T20:53:18.539Z,30.56
2023-03-29T20:56:22.530Z,30.35
2023-03-29T20:59:27.904Z,30.79
2023-03-29T21:02:33.501Z,30.32
2023-03-29T21:05:37.546Z,30.62
2023-03-29T21:08:42.903Z,30.57
2023-03-29T21:11:47.283Z,30.56
2023-03-29T21:14:51.671Z,30.67
2023-03-29T21:17:57.180Z,30.76
2023-03-29T21:21:01.336Z,31.27
2023-03-29T21:24:05.425Z,31.48
2023-03-29T21:27:09.477Z,31.39
2023-03-29T21:30:13.806Z,31.25
2023-03-29T21:33:19.321Z,31.05
2023-03-29T21:36:23.290Z,31.05
2023-03-29T21:39:27.665Z,30.99
2023-03-29T21:42:31.560Z,31.27
2023-03-29T21:45:35.450Z,31.64
2023-03-29T21:48:41.988Z,31.23
2023-03-29T21:51:46.862Z,31.64
2023-03-29T21:54:50.901Z,31.31
2023-03-29T21:57:54.922Z,31.31
2023-03-29T22:00:58.906Z,31.66
2023-03-29T22:04:04.484Z,31.36
2023-03-29T22:07:08.696Z,31.67
2023-03-29T22:10:14.287Z,31.71
2023-03-29T22:13:18.769Z,32.50
2023-03-29T22:16:25.960Z,32.57
2023-03-29T22:19:31.465Z,32.67
2023-03-29T22:22:35.405Z,32.80
2023-03-29T22:25:39.287Z,32.76
2023-03-29T22:28:43.510Z,32.78
2023-03-29T22:31:47.312Z,32.42
2023-03-29T22:34:52.969Z,32.73
2023-03-29T22:37:57.135Z,32.68
2023-03-29T22:41:01.106Z,32.90
2023-03-29T22:44:05.022Z,33.21
2023-03-29T22:47:09.011Z,33.05
2023-03-29T22:50:14.516Z,33.11
2023-03-29T22:53:18.375Z,33.43
2023-03-29T22:56:22.422Z,33.07
2023-03-29T22:59:27.303Z,33.45
2023-03-29T23:02:31.442Z,33.29
2023-03-29T23:05:36.782Z,33.35
2023-03-29T23:08:40.684Z,33.62
2023-03-29T23:11:44.641Z,33.84
2023-03-29T23:14:48.472Z,33.50
2023-03-29T23:17:52.347Z,33.49
2023-03-29T23:20:59.360Z,33.59
2023-03-29T23:24:03.325Z,33.67
2023-03-29T23:27:07.961Z,33.76
2023-03-29T23:30:12.440Z,34.17
2023-03-29T23:33:16.302Z,34.13
2023-03-29T23:36:23.283Z,34.48
2023-03-29T23:39:27.180Z,34.00
2023-03-29T23:42:31.648Z,34.05
2023-03-29T23:45:37.731Z,34.09
2023-03-29T23:48:41.863Z,34.07
2023-03-29T23:51:48.602Z,33.74
2023-03-29T23:54:52.822Z,34.24
2023-03-29T23:57:56.866Z,34.48
